Time;durP1;ratioP1;P1;durP2;ratioP2;P2;SDS_P1;SDS_P2;PMS_P1;PMS_P2;Temp;Humidity;BMP_temperature;BMP_pressure;BME280_temperature;BME280_humidity;BME280_pressure;Samples;Min_cycle;Max_cycle;Signal;HPM_P1;HPM_P2
2023/11/06 00:04:35;;;;;;;1.58;0.50;;;;;;;;;;4947459;29;20042;-59
2023/11/06 00:07:34;;;;;;;3.17;0.47;;;;;;;;;;4961684;28;20039;-59
2023/11/06 00:10:13;;;;;;;;;;;;;;;;;;;;;
2023/11/06 00:15:48;;;;;;;2.50;1.05;;;;;;;;;;4922022;29;20123;-59
2023/11/06 00:18:18;;;;;;;2.63;0.90;;;;;;;;;;4921572;29;20565;-59
2023/11/06 00:21:19;;;;;;;2.93;0.83;;;;;;;;;;4962829;29;20059;-59
2023/11/06 00:27:42;;;;;;;0.90;0.52;;;;;;;;;;4963490;29;20035;-59
2023/11/06 00:30:14;;;;;;;1.77;0.60;;;;;;;;;;4957128;28;20414;-59
2023/11/06 00:32:47;;;;;;;2.65;1.02;;;;;;;;;;4962907;28;20031;-59
2023/11/06 00:35:40;;;;;;;1.67;0.68;;;;;;;;;;4962920;28;20377;-59
2023/11/06 00:38:26;;;;;;;3.03;0.85;;;;;;;;;;4962054;28;20078;-59
2023/11/06 00:40:55;;;;;;;1.80;0.70;;;;;;;;;;4962962;28;20035;-59
2023/11/06 00:43:45;;;;;;;1.75;0.70;;;;;;;;;;4963890;28;20030;-59
2023/11/06 00:46:33;;;;;;;3.15;1.05;;;;;;;;;;4956924;28;20056;-59
2023/11/06 00:49:34;;;;;;;3.00;0.60;;;;;;;;;;4963316;28;20034;-59
2023/11/06 00:52:22;;;;;;;1.33;0.55;;;;;;;;;;4962402;28;20055;-59
2023/11/06 00:55:00;;;;;;;3.20;0.88;;;;;;;;;;4963398;28;20074;-59
2023/11/06 00:57:56;;;;;;;;;;;;;;;;;;;;;
2023/11/06 01:03:32;;;;;;;4.70;1.17;;;;;;;;;;4963392;29;20110;-59
2023/11/06 01:06:22;;;;;;;2.28;1.00;;;;;;;;;;4963717;29;20369;-59
2023/11/06 01:09:26;;;;;;;3.88;0.75;;;;;;;;;;4961918;29;20031;-59
2023/11/06 01:12:18;;;;;;;1.38;0.70;;;;;;;;;;4956064;28;20055;-59
2023/11/06 01:17:41;;;;;;;5.05;0.88;;;;;;;;;;4921360;29;20044;-59
2023/11/06 01:20:07;;;;;;;1.63;0.68;;;;;;;;;;4958896;29;20035;-59
2023/11/06 01:22:52;;;;;;;2.03;0.68;;;;;;;;;;4962011;28;20054;-59
2023/11/06 01:25:19;;;;;;;1.50;0.60;;;;;;;;;;4961859;28;20066;-59
2023/11/06 01:28:06;;;;;;;1.98;0.90;;;;;;;;;;4960480;28;20035;-59
2023/11/06 01:30:41;;;;;;;5.32;1.30;;;;;;;;;;4955579;28;20063;-59
2023/11/06 01:36:00;;;;;;;1.33;0.52;;;;;;;;;;4955015;29;20043;-59
2023/11/06 01:38:45;;;;;;;3.58;0.85;;;;;;;;;;4961477;28;20385;-59
2023/11/06 01:41:26;;;;;;;1.15;0.55;;;;;;;;;;4963263;28;20035;-59
2023/11/06 01:44:06;;;;;;;1.17;0.63;;;;;;;;;;4962744;29;20030;-59
2023/11/06 01:46:38;;;;;;;4.22;1.05;;;;;;;;;;4961435;28;20030;-59
2023/11/06 01:49:40;;;;;;;1.80;0.65;;;;;;;;;;4962994;28;20116;-59
2023/11/06 01:55:10;;;;;;;1.40;0.82;;;;;;;;;;4947137;29;20091;-59
2023/11/06 02:01:05;;;;;;;1.67;0.90;;;;;;;;;;4953193;29;20035;-59
2023/11/06 02:04:07;;;;;;;2.05;0.52;;;;;;;;;;4958414;28;20377;-59
2023/11/06 02:09:49;;;;;;;2.75;0.40;;;;;;;;;;4961588;28;20059;-59
2023/11/06 02:12:52;;;;;;;7.55;0.77;;;;;;;;;;4962516;28;20033;-59
2023/11/06 02:15:21;;;;;;;1.75;0.60;;;;;;;;;;4961365;28;20123;-59
2023/11/06 02:18:05;;;;;;;5.15;0.77;;;;;;;;;;4960931;28;20089;-59
2023/11/06 02:21:11;;;;;;;;;;;;;;;;;;;;;
2023/11/06 02:23:52;;;;;;;1.58;0.45;;;;;;;;;;4961500;28;20116;-59
2023/11/06 02:29:40;;;;;;;1.67;0.70;;;;;;;;;;4921224;29;20080;-59
2023/11/06 02:32:16;;;;;;;0.77;0.20;;;;;;;;;;4921551;29;20557;-59
2023/11/06 02:35:07;;;;;;;1.60;0.50;;;;;;;;;;4921573;29;20048;-59
2023/11/06 02:37:58;;;;;;;2.90;0.45;;;;;;;;;;4920100;29;20076;-59
2023/11/06 02:40:27;;;;;;;;;;;;;;;;;;4907569;29;20032;-59
2023/11/06 02:42:59;;;;;;;1.85;0.55;;;;;;;;;;4945266;29;19934;-59
2023/11/06 02:45:50;;;;;;;2.40;0.80;;;;;;;;;;4962128;28;20058;-59
2023/11/06 02:48:26;;;;;;;0.77;0.32;;;;;;;;;;4961977;28;20034;-59
2023/11/06 02:57:33;;;;;;;1.23;0.50;;;;;;;;;;4979131;28;20074;-59
2023/11/06 03:00:37;;;;;;;3.15;1.25;;;;;;;;;;4979281;28;20137;-59
2023/11/06 03:05:56;;;;;;;1.00;0.38;;;;;;;;;;4976278;28;20135;-59
2023/11/06 03:08:42;;;;;;;1.48;0.45;;;;;;;;;;4979583;28;20027;-59
2023/11/06 03:11:27;;;;;;;0.63;0.30;;;;;;;;;;4979892;28;20019;-59
2023/11/06 03:17:16;;;;;;;;;;;;;;;;;;;;;
2023/11/06 03:26:02;;;;;;;0.70;0.30;;;;;;;;;;4900737;29;20033;-59
2023/11/06 03:31:26;;;;;;;1.38;0.50;;;;;;;;;;4979921;28;20131;-59
2023/11/06 03:37:00;;;;;;;0.73;0.40;;;;;;;;;;4979563;28;20074;-59
2023/11/06 03:39:42;;;;;;;2.45;0.30;;;;;;;;;;4979525;28;20045;-59
2023/11/06 03:42:20;;;;;;;1.00;0.20;;;;;;;;;;4979474;28;20046;-59
2023/11/06 03:45:05;;;;;;;1.52;0.60;;;;;;;;;;4977958;28;20063;-59
2023/11/06 03:47:52;;;;;;;1.40;0.60;;;;;;;;;;4978651;28;20058;-59
2023/11/06 03:50:42;;;;;;;;;;;;;;;;;;;;;
2023/11/06 03:53:32;;;;;;;0.43;0.20;;;;;;;;;;4979069;28;20104;-59
2023/11/06 03:56:19;;;;;;;1.30;0.43;;;;;;;;;;4984070;28;20054;-59
2023/11/06 03:59:08;;;;;;;1.30;0.43;;;;;;;;;;4982231;28;20039;-59
2023/11/06 04:01:35;;;;;;;0.38;0.20;;;;;;;;;;4976727;28;20172;-59
2023/11/06 04:04:08;;;;;;;0.73;0.28;;;;;;;;;;4981041;28;20094;-59
2023/11/06 04:06:59;;;;;;;2.15;0.50;;;;;;;;;;4982664;28;20027;-59
2023/11/06 04:09:28;;;;;;;0.40;0.20;;;;;;;;;;4984075;28;20042;-59
2023/11/06 04:12:02;;;;;;;0.40;0.20;;;;;;;;;;4983591;28;20031;-59
2023/11/06 04:14:43;;;;;;;2.10;0.55;;;;;;;;;;4984036;28;20026;-59
2023/11/06 04:17:26;;;;;;;6.00;0.88;;;;;;;;;;4983693;28;20042;-59
2023/11/06 04:20:05;;;;;;;1.27;0.50;;;;;;;;;;4982810;28;20412;-59
2023/11/06 04:22:59;;;;;;;1.58;0.43;;;;;;;;;;4983130;28;20022;-59
2023/11/06 04:25:53;;;;;;;0.45;0.22;;;;;;;;;;4970957;28;20046;-59
2023/11/06 04:28:34;;;;;;;1.45;0.80;;;;;;;;;;4982130;28;20463;-59
2023/11/06 04:31:22;;;;;;;4.53;0.90;;;;;;;;;;4983273;28;20226;-59
2023/11/06 04:39:43;;;;;;;2.10;0.40;;;;;;;;;;4980424;28;20038;-59
2023/11/06 04:48:33;;;;;;;1.13;0.40;;;;;;;;;;4981111;28;20042;-59
2023/11/06 04:51:09;;;;;;;1.23;0.40;;;;;;;;;;4940343;28;20421;-60
2023/11/06 04:53:50;;;;;;;1.08;0.40;;;;;;;;;;4981958;28;20039;-59
2023/11/06 04:56:23;;;;;;;;;;;;;;;;;;4980430;28;20504;-59
2023/11/06 04:59:11;;;;;;;1.17;0.45;;;;;;;;;;4981752;28;19928;-59
2023/11/06 05:01:47;;;;;;;2.97;0.85;;;;;;;;;;4978938;28;20477;-59
2023/11/06 05:04:35;;;;;;;1.30;0.50;;;;;;;;;;4980747;28;20050;-59
2023/11/06 05:07:40;;;;;;;;;;;;;;;;;;;;;
2023/11/06 05:10:20;;;;;;;;;;;;;;;;;;;;;
2023/11/06 05:12:46;;;;;;;4.83;0.83;;;;;;;;;;4982461;28;20079;-59
2023/11/06 05:15:24;;;;;;;1.13;0.30;;;;;;;;;;4977706;28;20037;-59
2023/11/06 05:18:01;;;;;;;;;;;;;;;;;;;;;
2023/11/06 05:23:29;;;;;;;2.15;0.60;;;;;;;;;;4979976;28;20035;-59
2023/11/06 05:26:27;;;;;;;1.38;0.52;;;;;;;;;;4978353;28;20416;-60
2023/11/06 05:29:15;;;;;;;0.85;0.38;;;;;;;;;;4979715;28;20038;-60
2023/11/06 05:31:54;;;;;;;1.05;0.43;;;;;;;;;;4980863;28;20058;-60
2023/11/06 05:34:32;;;;;;;2.47;0.60;;;;;;;;;;4980576;28;20061;-60
2023/11/06 05:37:37;;;;;;;1.92;0.60;;;;;;;;;;4979662;28;20082;-60
2023/11/06 05:40:31;;;;;;;1.55;0.38;;;;;;;;;;4956755;28;20111;-61
2023/11/06 05:46:05;;;;;;;1.05;0.47;;;;;;;;;;4956657;28;20038;-59
2023/11/06 05:48:58;;;;;;;3.45;0.88;;;;;;;;;;4964754;28;20042;-58
2023/11/06 05:55:08;;;;;;;;;;;;;;;;;;;;;
2023/11/06 05:57:37;;;;;;;2.63;0.70;;;;;;;;;;4968395;28;20035;-59
2023/11/06 06:00:39;;;;;;;1.60;0.47;;;;;;;;;;4967697;28;20066;-59
2023/11/06 06:03:25;;;;;;;;;;;;;;;;;;;;;
2023/11/06 06:08:41;;;;;;;2.40;0.60;;;;;;;;;;4974225;28;20085;-58
2023/11/06 06:11:36;;;;;;;0.98;0.40;;;;;;;;;;4964129;28;20072;-58
2023/11/06 06:14:44;;;;;;;0.38;0.22;;;;;;;;;;4971215;28;20027;-57
2023/11/06 06:17:31;;;;;;;0.90;0.40;;;;;;;;;;4970987;28;20039;-58
2023/11/06 06:20:23;;;;;;;1.60;0.43;;;;;;;;;;4974342;28;20097;-58
2023/11/06 06:25:47;;;;;;;0.70;0.32;;;;;;;;;;4962272;28;20060;-56
2023/11/06 06:31:18;;;;;;;1.80;0.57;;;;;;;;;;4974055;28;20057;-57
2023/11/06 06:33:47;;;;;;;0.47;0.30;;;;;;;;;;4972189;28;20517;-57
2023/11/06 06:36:27;;;;;;;0.50;0.20;;;;;;;;;;4974253;28;20117;-57
2023/11/06 06:39:05;;;;;;;3.92;0.55;;;;;;;;;;4937364;28;20050;-57
2023/11/06 06:41:41;;;;;;;0.75;0.40;;;;;;;;;;4972833;28;20045;-58
2023/11/06 06:44:27;;;;;;;2.80;0.77;;;;;;;;;;4955033;28;20034;-60
2023/11/06 06:46:58;;;;;;;0.68;0.43;;;;;;;;;;4969307;28;20034;-59
2023/11/06 06:49:45;;;;;;;0.65;0.30;;;;;;;;;;4972200;28;20023;-58
2023/11/06 06:52:14;;;;;;;1.42;0.30;;;;;;;;;;4973823;28;20031;-58
2023/11/06 06:55:00;;;;;;;0.52;0.30;;;;;;;;;;4973782;28;20023;-58
2023/11/06 07:00:44;;;;;;;0.70;0.38;;;;;;;;;;4970068;28;20042;-58
2023/11/06 07:03:41;;;;;;;1.38;0.50;;;;;;;;;;4972174;28;20039;-58
2023/11/06 07:06:08;;;;;;;1.17;0.40;;;;;;;;;;4971951;28;20038;-57
2023/11/06 07:09:02;;;;;;;0.40;0.30;;;;;;;;;;4972512;28;20464;-59
2023/11/06 07:11:45;;;;;;;1.00;0.30;;;;;;;;;;4968117;28;20500;-58
2023/11/06 07:14:39;;;;;;;0.85;0.32;;;;;;;;;;4973368;28;20050;-59
2023/11/06 07:17:30;;;;;;;1.15;0.50;;;;;;;;;;4972507;28;20106;-58
2023/11/06 07:20:29;;;;;;;1.10;0.43;;;;;;;;;;4973366;28;20027;-57
2023/11/06 07:23:08;;;;;;;0.82;0.45;;;;;;;;;;4969357;28;20090;-59
2023/11/06 07:25:35;;;;;;;7.38;0.73;;;;;;;;;;4982645;28;20019;-58
2023/11/06 07:28:01;;;;;;;1.13;0.50;;;;;;;;;;4973735;28;20039;-58
2023/11/06 07:33:28;;;;;;;2.20;0.70;;;;;;;;;;4969821;28;20062;-59
2023/11/06 07:38:55;;;;;;;1.25;0.40;;;;;;;;;;4967949;28;20046;-57
2023/11/06 07:41:31;;;;;;;0.80;0.30;;;;;;;;;;4975801;28;20045;-58
2023/11/06 07:44:13;;;;;;;2.08;0.85;;;;;;;;;;4969949;28;20453;-58
2023/11/06 07:46:54;;;;;;;2.33;0.70;;;;;;;;;;4975022;28;20035;-58
2023/11/06 07:49:38;;;;;;;2.38;0.57;;;;;;;;;;4975973;28;20039;-59
2023/11/06 07:52:23;;;;;;;1.02;0.38;;;;;;;;;;4975437;28;20031;-58
2023/11/06 07:55:08;;;;;;;1.05;0.43;;;;;;;;;;4970097;28;20035;-57
2023/11/06 07:57:49;;;;;;;3.83;1.00;;;;;;;;;;4973589;28;20034;-58
2023/11/06 08:00:38;;;;;;;1.40;0.50;;;;;;;;;;4975471;28;20380;-56
2023/11/06 08:03:31;;;;;;;1.27;0.65;;;;;;;;;;4974442;28;20370;-57
2023/11/06 08:09:09;;;;;;;2.78;0.88;;;;;;;;;;4967683;28;20039;-58
2023/11/06 08:11:38;;;;;;;2.47;1.13;;;;;;;;;;4975300;28;20114;-58
2023/11/06 08:17:18;;;;;;;1.75;0.60;;;;;;;;;;4973936;28;20532;-59
2023/11/06 08:23:24;;;;;;;1.63;0.70;;;;;;;;;;4947523;28;20649;-57
2023/11/06 08:26:04;;;;;;;1.00;0.50;;;;;;;;;;4974902;28;20118;-57
2023/11/06 08:28:42;;;;;;;3.95;1.00;;;;;;;;;;4970364;28;20053;-58
2023/11/06 08:31:30;;;;;;;3.15;1.00;;;;;;;;;;4974349;28;20428;-58
2023/11/06 08:34:14;;;;;;;;;;;;;;;;;;;;;
2023/11/06 08:36:50;;;;;;;3.00;0.80;;;;;;;;;;4962568;28;20026;-56
2023/11/06 08:42:28;;;;;;;7.30;0.70;;;;;;;;;;4977209;28;20034;-58
2023/11/06 08:48:15;;;;;;;3.03;0.82;;;;;;;;;;4955117;28;20137;-58
2023/11/06 08:51:14;;;;;;;0.82;0.40;;;;;;;;;;4988893;28;20619;-59
2023/11/06 08:54:16;;;;;;;0.80;0.35;;;;;;;;;;4974724;28;20034;-59
2023/11/06 08:57:08;;;;;;;1.25;0.50;;;;;;;;;;4972915;28;20512;-59
2023/11/06 09:00:08;;;;;;;1.77;0.55;;;;;;;;;;4974431;28;20038;-58
2023/11/06 09:03:01;;;;;;;11.73;3.40;;;;;;;;;;4973803;28;20034;-57
2023/11/06 09:05:39;;;;;;;1.25;0.50;;;;;;;;;;4971913;28;20366;-58
2023/11/06 09:08:44;;;;;;;1.80;0.30;;;;;;;;;;4974024;28;20473;-57
2023/11/06 09:11:19;;;;;;;3.10;0.47;;;;;;;;;;4973387;28;20039;-59
2023/11/06 09:13:51;;;;;;;1.30;0.60;;;;;;;;;;4973265;28;20468;-57
2023/11/06 09:16:28;;;;;;;1.60;0.45;;;;;;;;;;4973487;28;20380;-57
2023/11/06 09:19:13;;;;;;;0.65;0.38;;;;;;;;;;4973672;28;20058;-58
2023/11/06 09:22:12;;;;;;;4.50;0.82;;;;;;;;;;4972630;28;20385;-57
2023/11/06 09:28:19;;;;;;;2.63;0.68;;;;;;;;;;4973996;28;20038;-60
2023/11/06 09:31:20;;;;;;;1.58;0.75;;;;;;;;;;4936540;29;20568;-58
2023/11/06 09:34:02;;;;;;;1.23;0.38;;;;;;;;;;4945301;28;20035;-58
2023/11/06 09:36:54;;;;;;;1.90;0.70;;;;;;;;;;4960715;28;20460;-58
2023/11/06 09:39:44;;;;;;;1.42;0.65;;;;;;;;;;4961192;28;20031;-58
2023/11/06 09:42:15;;;;;;;2.42;0.95;;;;;;;;;;4976099;28;20034;-58
2023/11/06 09:44:48;;;;;;;0.77;0.47;;;;;;;;;;4976520;28;20342;-58
2023/11/06 09:47:17;;;;;;;5.82;0.43;;;;;;;;;;4977338;28;20075;-58
2023/11/06 09:49:54;;;;;;;2.90;0.73;;;;;;;;;;4978659;28;20038;-59
2023/11/06 09:52:49;;;;;;;1.40;0.60;;;;;;;;;;4980351;28;20073;-56
2023/11/06 09:55:36;;;;;;;0.60;0.30;;;;;;;;;;4952579;28;20031;-57
2023/11/06 10:04:07;;;;;;;;;;;;;;;;;;4977969;28;20038;-60
2023/11/06 10:06:51;;;;;;;0.80;0.40;;;;;;;;;;4977278;28;20364;-60
2023/11/06 10:09:45;;;;;;;0.95;0.20;;;;;;;;;;4975944;28;20425;-59
2023/11/06 10:15:33;;;;;;;0.43;0.25;;;;;;;;;;4899254;29;20126;-56
2023/11/06 10:24:21;;;;;;;1.03;0.40;;;;;;;;;;4917711;29;20076;-58
2023/11/06 10:30:37;;;;;;;1.85;0.30;;;;;;;;;;4932726;29;20032;-57
2023/11/06 10:36:39;;;;;;;0.52;0.30;;;;;;;;;;4944022;28;20031;-57
2023/11/06 10:39:29;;;;;;;1.48;0.65;;;;;;;;;;4970747;28;20432;-58
2023/11/06 10:42:05;;;;;;;0.63;0.30;;;;;;;;;;4953193;28;20042;-58
2023/11/06 10:44:50;;;;;;;0.55;0.22;;;;;;;;;;4971748;28;20118;-58
2023/11/06 10:47:37;;;;;;;0.82;0.30;;;;;;;;;;4961622;28;20041;-57
2023/11/06 10:50:21;;;;;;;0.43;0.20;;;;;;;;;;4967866;28;20041;-58
2023/11/06 10:52:59;;;;;;;0.70;0.30;;;;;;;;;;4969606;28;20030;-58
2023/11/06 10:55:54;;;;;;;1.65;0.40;;;;;;;;;;4969552;28;20082;-58
2023/11/06 11:01:48;;;;;;;1.20;0.52;;;;;;;;;;4971597;28;20174;-58
2023/11/06 11:07:25;;;;;;;3.28;0.30;;;;;;;;;;4953032;28;20034;-57
2023/11/06 11:10:07;;;;;;;0.65;0.30;;;;;;;;;;4972756;28;20125;-58
2023/11/06 11:12:36;;;;;;;1.33;0.40;;;;;;;;;;4972839;28;20023;-58
2023/11/06 11:15:42;;;;;;;;;;;;;;;;;;;;;
2023/11/06 11:18:13;;;;;;;1.13;0.50;;;;;;;;;;4972255;28;20495;-57
2023/11/06 11:21:04;;;;;;;1.35;0.50;;;;;;;;;;4970282;28;20047;-58
2023/11/06 11:23:52;;;;;;;0.47;0.15;;;;;;;;;;4954078;28;20041;-58
2023/11/06 11:29:28;;;;;;;1.70;0.30;;;;;;;;;;4973162;28;20519;-58
2023/11/06 11:35:17;;;;;;;1.73;0.40;;;;;;;;;;4972615;28;20388;-58
2023/11/06 11:38:11;;;;;;;1.73;0.20;;;;;;;;;;4971732;28;20050;-58
2023/11/06 11:40:51;;;;;;;1.25;0.40;;;;;;;;;;4972182;28;20027;-58
2023/11/06 11:43:26;;;;;;;1.33;0.38;;;;;;;;;;4971889;28;20384;-58
2023/11/06 11:46:16;;;;;;;1.40;0.40;;;;;;;;;;4971839;28;20067;-58
2023/11/06 11:48:59;;;;;;;1.00;0.38;;;;;;;;;;4966828;28;20137;-58
2023/11/06 11:51:59;;;;;;;1.67;0.55;;;;;;;;;;4972410;28;20023;-58
2023/11/06 11:54:34;;;;;;;0.93;0.30;;;;;;;;;;4954022;28;20098;-58
2023/11/06 11:57:13;;;;;;;0.13;0.10;;;;;;;;;;4973758;28;20616;-58
2023/11/06 12:00:03;;;;;;;0.90;0.35;;;;;;;;;;4971675;28;20022;-58
2023/11/06 12:02:38;;;;;;;0.40;0.20;;;;;;;;;;4972135;28;20409;-59
2023/11/06 12:05:52;;;;;;;1.80;0.32;;;;;;;;;;4971192;28;20443;-58
2023/11/06 12:14:09;;;;;;;1.13;0.13;;;;;;;;;;4974740;28;20382;-58
2023/11/06 12:17:29;;;;;;;0.08;0.08;;;;;;;;;;4973988;28;20098;-58
2023/11/06 12:23:05;;;;;;;0.95;0.43;;;;;;;;;;4976072;28;20093;-58
2023/11/06 12:25:39;;;;;;;1.25;0.30;;;;;;;;;;4976107;28;20480;-58
2023/11/06 12:28:15;;;;;;;0.75;0.50;;;;;;;;;;4973749;28;20031;-58
2023/11/06 12:30:59;;;;;;;2.55;0.30;;;;;;;;;;4974130;28;20065;-59
2023/11/06 12:33:50;;;;;;;0.20;0.10;;;;;;;;;;4974984;28;20138;-58
2023/11/06 12:36:39;;;;;;;1.10;0.20;;;;;;;;;;4976132;28;20031;-58
2023/11/06 12:42:40;;;;;;;0.52;0.20;;;;;;;;;;4943013;28;20042;-58
2023/11/06 12:45:29;;;;;;;0.20;0.10;;;;;;;;;;4974661;28;20037;-58
2023/11/06 12:48:03;;;;;;;1.02;0.20;;;;;;;;;;4988356;28;20030;-58
2023/11/06 12:50:35;;;;;;;0.60;0.30;;;;;;;;;;4975644;28;20053;-58
2023/11/06 12:56:06;;;;;;;0.13;0.10;;;;;;;;;;4926303;28;20036;-58
2023/11/06 13:01:58;;;;;;;0.60;0.20;;;;;;;;;;4974670;28;20031;-58
2023/11/06 13:07:32;;;;;;;0.70;0.10;;;;;;;;;;4973547;28;19965;-58
2023/11/06 13:10:17;;;;;;;0.10;0.10;;;;;;;;;;4975655;28;20057;-58
2023/11/06 13:13:16;;;;;;;0.30;0.10;;;;;;;;;;4965105;28;20121;-58
2023/11/06 13:16:01;;;;;;;1.80;0.25;;;;;;;;;;4983031;28;20105;-58
2023/11/06 13:18:44;;;;;;;0.30;0.20;;;;;;;;;;4972486;28;20062;-58
2023/11/06 13:21:42;;;;;;;0.40;0.20;;;;;;;;;;4964296;28;20396;-58
2023/11/06 13:24:44;;;;;;;;;;;;;;;;;;;;;
2023/11/06 13:27:23;;;;;;;0.35;0.20;;;;;;;;;;4969598;28;20065;-58
2023/11/06 13:29:53;;;;;;;0.57;0.20;;;;;;;;;;4974112;28;20461;-59
2023/11/06 13:32:50;;;;;;;0.30;0.17;;;;;;;;;;4973022;28;20062;-58
2023/11/06 13:35:54;;;;;;;0.50;0.28;;;;;;;;;;4963098;28;20050;-57
2023/11/06 13:41:28;;;;;;;0.32;0.13;;;;;;;;;;4970685;28;20053;-58
2023/11/06 13:44:12;;;;;;;0.93;0.40;;;;;;;;;;4972905;28;20038;-58
2023/11/06 13:47:26;;;;;;;0.20;0.10;;;;;;;;;;4972252;28;20445;-59
2023/11/06 13:50:25;;;;;;;1.00;0.40;;;;;;;;;;4912303;29;20402;-59
2023/11/06 13:59:03;;;;;;;1.30;0.45;;;;;;;;;;4954256;29;20069;-58
2023/11/06 14:01:46;;;;;;;0.80;0.30;;;;;;;;;;4961370;28;20043;-58
2023/11/06 14:04:49;;;;;;;0.30;0.20;;;;;;;;;;4972871;28;20050;-58
2023/11/06 14:07:23;;;;;;;0.30;0.10;;;;;;;;;;4969360;28;20041;-58
2023/11/06 14:10:24;;;;;;;0.47;0.30;;;;;;;;;;4964213;28;20041;-58
2023/11/06 14:12:59;;;;;;;0.65;0.28;;;;;;;;;;4974047;28;20027;-58
2023/11/06 14:18:38;;;;;;;0.15;0.08;;;;;;;;;;4973442;28;20254;-58
2023/11/06 14:21:23;;;;;;;0.25;0.20;;;;;;;;;;4970197;28;20126;-58
2023/11/06 14:24:21;;;;;;;0.40;0.20;;;;;;;;;;4966629;28;20039;-58
2023/11/06 14:26:55;;;;;;;0.30;0.20;;;;;;;;;;4972432;28;20042;-58
2023/11/06 14:29:36;;;;;;;0.63;0.30;;;;;;;;;;4972595;28;20050;-58
2023/11/06 14:32:06;;;;;;;0.60;0.20;;;;;;;;;;4966479;28;20034;-58
2023/11/06 14:35:04;;;;;;;0.65;0.28;;;;;;;;;;4953821;28;20047;-57
2023/11/06 14:40:59;;;;;;;0.70;0.30;;;;;;;;;;4958249;28;20038;-57
2023/11/06 14:49:40;;;;;;;0.77;0.32;;;;;;;;;;4948417;28;20046;-56
2023/11/06 14:52:15;;;;;;;0.73;0.25;;;;;;;;;;4966808;28;20039;-58
2023/11/06 14:54:48;;;;;;;0.63;0.20;;;;;;;;;;4967184;28;20089;-58
2023/11/06 14:57:31;;;;;;;0.38;0.13;;;;;;;;;;4966252;28;20653;-58
2023/11/06 15:00:10;;;;;;;0.47;0.28;;;;;;;;;;4964228;28;20085;-59
2023/11/06 15:03:03;;;;;;;0.57;0.28;;;;;;;;;;4967563;28;20101;-58
2023/11/06 15:09:05;;;;;;;0.50;0.28;;;;;;;;;;4967255;28;20541;-58
2023/11/06 15:12:24;;;;;;;0.60;0.25;;;;;;;;;;4965493;28;20027;-57
2023/11/06 15:17:17;;;;;;;0.38;0.17;;;;;;;;;;4967940;28;20592;-57
2023/11/06 15:19:55;;;;;;;1.92;1.20;;;;;;;;;;4967999;28;20031;-57
2023/11/06 15:22:43;;;;;;;;;;;;;;;;;;;;;
2023/11/06 15:25:26;;;;;;;0.32;0.20;;;;;;;;;;4966001;28;20029;-57
2023/11/06 15:30:56;;;;;;;0.32;0.15;;;;;;;;;;4965822;28;20049;-58
2023/11/06 15:33:34;;;;;;;1.40;0.20;;;;;;;;;;4969760;28;20506;-58
2023/11/06 15:36:28;;;;;;;0.68;0.38;;;;;;;;;;4969885;28;20027;-57
2023/11/06 15:39:09;;;;;;;0.82;0.40;;;;;;;;;;4957814;28;20058;-57
2023/11/06 15:41:38;;;;;;;1.08;0.52;;;;;;;;;;4969142;28;20125;-56
2023/11/06 15:56:36;;;;;;;0.28;0.15;;;;;;;;;;4887080;29;20530;-57
2023/11/06 15:59:11;;;;;;;0.80;0.40;;;;;;;;;;4987123;28;20034;-58
2023/11/06 16:01:56;;;;;;;0.75;0.38;;;;;;;;;;4968410;28;20026;-58
2023/11/06 16:04:45;;;;;;;0.70;0.30;;;;;;;;;;4973478;28;20420;-57
2023/11/06 16:07:27;;;;;;;0.93;0.38;;;;;;;;;;4970806;28;20047;-57
2023/11/06 16:10:02;;;;;;;1.02;0.40;;;;;;;;;;4963837;28;20122;-58
2023/11/06 16:15:49;;;;;;;;;;;;;;;;;;;;;
2023/11/06 16:18:36;;;;;;;0.55;0.22;;;;;;;;;;4969537;28;20047;-58
2023/11/06 16:21:38;;;;;;;1.00;0.35;;;;;;;;;;4972368;28;20442;-58
2023/11/06 16:27:24;;;;;;;1.10;0.30;;;;;;;;;;4972994;28;20077;-57
2023/11/06 16:30:24;;;;;;;0.55;0.28;;;;;;;;;;4971786;28;20062;-58
2023/11/06 16:33:11;;;;;;;1.05;0.47;;;;;;;;;;4973285;28;20057;-57
2023/11/06 16:35:46;;;;;;;0.57;0.25;;;;;;;;;;4973380;28;20035;-57
2023/11/06 16:38:37;;;;;;;;;;;;;;;;;;;;;
2023/11/06 16:41:09;;;;;;;0.45;0.20;;;;;;;;;;4951932;28;20071;-57
2023/11/06 16:44:03;;;;;;;1.38;0.50;;;;;;;;;;4973024;28;20031;-56
2023/11/06 16:46:41;;;;;;;0.43;0.20;;;;;;;;;;4986062;28;20121;-57
2023/11/06 16:49:22;;;;;;;1.08;0.38;;;;;;;;;;4975021;28;20031;-56
2023/11/06 16:52:13;;;;;;;0.70;0.38;;;;;;;;;;4974635;28;20030;-57
2023/11/06 16:54:48;;;;;;;0.80;0.30;;;;;;;;;;4975368;28;20042;-58
2023/11/06 16:57:39;;;;;;;0.88;0.38;;;;;;;;;;4974052;28;20381;-57
2023/11/06 17:00:27;;;;;;;1.20;0.40;;;;;;;;;;4970764;28;20045;-58
2023/11/06 17:02:58;;;;;;;0.65;0.32;;;;;;;;;;4974867;28;20026;-58
2023/11/06 17:05:53;;;;;;;0.77;0.35;;;;;;;;;;4923292;28;20664;-58
2023/11/06 17:14:44;;;;;;;0.73;0.32;;;;;;;;;;4928664;28;20031;-57
2023/11/06 17:17:34;;;;;;;0.70;0.30;;;;;;;;;;4931116;28;20358;-58
2023/11/06 17:23:07;;;;;;;0.70;0.35;;;;;;;;;;4965520;28;20078;-58
2023/11/06 17:25:42;;;;;;;1.10;0.60;;;;;;;;;;4963405;28;20041;-56
2023/11/06 17:28:21;;;;;;;1.10;0.50;;;;;;;;;;4972726;28;20038;-57
2023/11/06 17:31:02;;;;;;;0.63;0.30;;;;;;;;;;4975563;28;20031;-57
2023/11/06 17:36:24;;;;;;;0.77;0.30;;;;;;;;;;4967371;28;20528;-57
2023/11/06 17:39:09;;;;;;;1.35;0.57;;;;;;;;;;4985135;28;20039;-54
2023/11/06 17:41:58;;;;;;;1.17;0.50;;;;;;;;;;4974432;28;20121;-57
2023/11/06 17:44:33;;;;;;;1.48;0.38;;;;;;;;;;4953888;28;20039;-57
2023/11/06 17:47:22;;;;;;;1.02;0.40;;;;;;;;;;4976930;28;20031;-56
2023/11/06 17:50:12;;;;;;;1.27;0.50;;;;;;;;;;4973660;28;20121;-57
2023/11/06 17:52:52;;;;;;;0.70;0.40;;;;;;;;;;4973612;28;20023;-57
2023/11/06 17:55:47;;;;;;;0.75;0.40;;;;;;;;;;4975494;28;21702;-58
2023/11/06 17:58:32;;;;;;;1.30;0.73;;;;;;;;;;4990686;28;20733;-56
2023/11/06 18:01:30;;;;;;;1.33;0.55;;;;;;;;;;4972795;28;20031;-57
2023/11/06 18:04:23;;;;;;;1.15;0.50;;;;;;;;;;4965311;28;20062;-57
2023/11/06 18:06:59;;;;;;;0.75;0.38;;;;;;;;;;4965843;28;20035;-57
2023/11/06 18:09:28;;;;;;;0.55;0.20;;;;;;;;;;4970340;28;20051;-57
2023/11/06 18:12:26;;;;;;;0.63;0.22;;;;;;;;;;4967050;28;20131;-57
2023/11/06 18:14:55;;;;;;;0.45;0.20;;;;;;;;;;4972252;28;20053;-57
2023/11/06 18:17:36;;;;;;;0.85;0.35;;;;;;;;;;4972826;28;20042;-57
2023/11/06 18:20:03;;;;;;;0.35;0.10;;;;;;;;;;4968589;28;20039;-57
2023/11/06 18:22:44;;;;;;;0.95;0.25;;;;;;;;;;4973703;28;20038;-56
2023/11/06 18:25:27;;;;;;;0.30;0.15;;;;;;;;;;4973529;28;20022;-55
2023/11/06 18:28:30;;;;;;;0.45;0.20;;;;;;;;;;4964174;28;20106;-57
2023/11/06 18:31:25;;;;;;;0.77;0.30;;;;;;;;;;4889874;29;20247;-56
2023/11/06 18:34:11;;;;;;;0.10;0.10;;;;;;;;;;4957240;28;20054;-54
2023/11/06 18:36:46;;;;;;;0.22;0.10;;;;;;;;;;4970769;28;20097;-56
2023/11/06 18:39:42;;;;;;;0.55;0.30;;;;;;;;;;4967260;28;20058;-55
2023/11/06 18:42:10;;;;;;;2.58;0.20;;;;;;;;;;4964643;28;20481;-57
2023/11/06 18:44:49;;;;;;;1.45;0.40;;;;;;;;;;4971410;28;20239;-54
2023/11/06 18:53:43;;;;;;;0.20;0.10;;;;;;;;;;4910860;28;20050;-54
2023/11/06 18:56:23;;;;;;;0.35;0.20;;;;;;;;;;4969636;28;20023;-57
2023/11/06 18:59:14;;;;;;;1.08;0.22;;;;;;;;;;4976546;28;20038;-56
2023/11/06 19:01:52;;;;;;;0.63;0.28;;;;;;;;;;4967852;28;20644;-57
2023/11/06 19:04:38;;;;;;;0.55;0.20;;;;;;;;;;4966155;28;20037;-55
2023/11/06 19:07:38;;;;;;;0.38;0.10;;;;;;;;;;4963396;28;20029;-57
2023/11/06 19:10:19;;;;;;;;;;;;;;;;;;;;;
2023/11/06 19:12:45;;;;;;;0.57;0.30;;;;;;;;;;4967088;28;20476;-57
2023/11/06 19:15:23;;;;;;;0.60;0.20;;;;;;;;;;4965590;28;20031;-56
2023/11/06 19:18:14;;;;;;;0.73;0.30;;;;;;;;;;4962027;28;20471;-57
2023/11/06 19:23:53;;;;;;;0.63;0.30;;;;;;;;;;4932174;29;20059;-57
2023/11/06 19:26:38;;;;;;;1.17;0.52;;;;;;;;;;4972966;28;20115;-56
2023/11/06 19:29:16;;;;;;;0.88;0.47;;;;;;;;;;4956068;28;20046;-57
2023/11/06 19:34:53;;;;;;;1.50;0.65;;;;;;;;;;4966632;28;20058;-57
2023/11/06 19:40:54;;;;;;;1.13;0.60;;;;;;;;;;4955147;28;20118;-58
2023/11/06 19:43:30;;;;;;;2.50;0.40;;;;;;;;;;4967094;28;20027;-57
2023/11/06 19:49:08;;;;;;;1.73;1.10;;;;;;;;;;4951425;28;20078;-56
2023/11/06 19:52:07;;;;;;;;;;;;;;;;;;;;;
2023/11/06 19:54:39;;;;;;;2.03;0.85;;;;;;;;;;4952393;28;20045;-57
2023/11/06 19:57:13;;;;;;;2.47;1.48;;;;;;;;;;4969232;28;20031;-57
2023/11/06 20:00:06;;;;;;;1.70;0.88;;;;;;;;;;4970768;28;20043;-58
2023/11/06 20:02:55;;;;;;;1.85;0.90;;;;;;;;;;4969449;28;20039;-57
2023/11/06 20:05:35;;;;;;;1.42;0.90;;;;;;;;;;4963951;28;20039;-56
2023/11/06 20:08:14;;;;;;;1.40;0.60;;;;;;;;;;4963209;28;20493;-57
2023/11/06 20:10:49;;;;;;;1.58;0.77;;;;;;;;;;4972342;28;20037;-57
2023/11/06 20:13:29;;;;;;;2.10;1.17;;;;;;;;;;4972535;28;20031;-56
2023/11/06 20:16:24;;;;;;;2.25;1.08;;;;;;;;;;4972453;28;20134;-56
2023/11/06 20:18:57;;;;;;;1.67;0.93;;;;;;;;;;4955937;28;20069;-57
2023/11/06 20:21:39;;;;;;;1.45;0.90;;;;;;;;;;4970545;28;20026;-57
2023/11/06 20:24:11;;;;;;;2.10;1.17;;;;;;;;;;4966688;28;20464;-56
2023/11/06 20:26:43;;;;;;;1.95;1.00;;;;;;;;;;4971441;28;20350;-56
2023/11/06 20:29:10;;;;;;;1.73;0.98;;;;;;;;;;4965516;28;20046;-58
2023/11/06 20:32:11;;;;;;;1.80;0.98;;;;;;;;;;4967012;28;20118;-57
2023/11/06 20:34:53;;;;;;;1.88;1.08;;;;;;;;;;4971623;28;20073;-55
2023/11/06 20:37:24;;;;;;;1.80;1.00;;;;;;;;;;4958833;28;20027;-57
2023/11/06 20:40:07;;;;;;;1.90;1.02;;;;;;;;;;4971348;28;20065;-57
2023/11/06 20:45:35;;;;;;;2.28;1.25;;;;;;;;;;4942875;28;20121;-57
2023/11/06 20:48:11;;;;;;;2.20;1.10;;;;;;;;;;4959654;28;20051;-57